sensor_id;sensor_type;location;lat;lon;timestamp;pressure;altitude;pressure_sealevel;temperature;humidity
25080;BME280;13071;48.868;9.996;2023-04-08T00:01:01;96715.63;;;7.38;100.00
25080;BME280;13071;48.868;9.996;2023-04-08T00:03:27;96709.91;;;7.40;100.00
25080;BME280;13071;48.868;9.996;2023-04-08T00:05:54;96712.31;;;7.42;100.00
25080;BME280;13071;48.868;9.996;2023-04-08T00:08:21;96719.25;;;7.34;100.00
25080;BME280;13071;48.868;9.996;2023-04-08T00:10:49;96709.19;;;7.26;100.00
25080;BME280;13071;48.868;9.996;2023-04-08T00:13:15;96714.09;;;7.24;100.00
25080;BME280;13071;48.868;9.996;2023-04-08T00:15:42;96716.84;;;7.32;100.00
25080;BME280;13071;48.868;9.996;2023-04-08T00:18:09;96713.38;;;7.32;100.00
25080;BME280;13071;48.868;9.996;2023-04-08T00:20:35;96717.66;;;7.33;100.00
25080;BME280;13071;48.868;9.996;2023-04-08T00:23:02;96717.34;;;7.34;100.00
25080;BME280;13071;48.868;9.996;2023-04-08T00:25:30;96718.00;;;7.40;100.00
25080;BME280;13071;48.868;9.996;2023-04-08T00:27:58;96715.81;;;7.42;100.00
25080;BME280;13071;48.868;9.996;2023-04-08T00:30:24;96713.13;;;7.42;100.00
25080;BME280;13071;48.868;9.996;2023-04-08T00:32:51;96709.44;;;7.38;100.00
25080;BME280;13071;48.868;9.996;2023-04-08T00:35:18;96717.69;;;7.42;100.00
25080;BME280;13071;48.868;9.996;2023-04-08T00:37:44;96716.59;;;7.43;100.00
25080;BME280;13071;48.868;9.996;2023-04-08T00:40:12;96710.72;;;7.41;100.00
25080;BME280;13071;48.868;9.996;2023-04-08T00:42:38;96706.94;;;7.42;100.00
25080;BME280;13071;48.868;9.996;2023-04-08T00:45:08;96716.44;;;7.39;100.00
25080;BME280;13071;48.868;9.996;2023-04-08T00:47:35;96708.03;;;7.41;100.00
25080;BME280;13071;48.868;9.996;2023-04-08T00:50:02;96710.53;;;7.37;100.00
25080;BME280;13071;48.868;9.996;2023-04-08T00:52:29;96710.84;;;7.35;100.00
25080;BME280;13071;48.868;9.996;2023-04-08T00:54:55;96708.66;;;7.37;100.00
25080;BME280;13071;48.868;9.996;2023-04-08T00:57:22;96711.66;;;7.36;100.00
25080;BME280;13071;48.868;9.996;2023-04-08T00:59:49;96710.53;;;7.37;100.00
25080;BME280;13071;48.868;9.996;2023-04-08T01:02:23;96714.03;;;7.37;100.00
25080;BME280;13071;48.868;9.996;2023-04-08T01:05:00;96714.03;;;7.37;100.00
25080;BME280;13071;48.868;9.996;2023-04-08T01:07:30;96714.97;;;7.33;100.00
25080;BME280;13071;48.868;9.996;2023-04-08T01:10:01;96705.59;;;7.30;100.00
25080;BME280;13071;48.868;9.996;2023-04-08T01:12:29;96708.47;;;7.34;100.00
25080;BME280;13071;48.868;9.996;2023-04-08T01:14:59;96705.59;;;7.30;100.00
25080;BME280;13071;48.868;9.996;2023-04-08T01:17:29;96710.53;;;7.37;100.00
25080;BME280;13071;48.868;9.996;2023-04-08T01:19:57;96707.56;;;7.38;100.00
25080;BME280;13071;48.868;9.996;2023-04-08T01:22:31;96710.47;;;7.06;100.00
25080;BME280;13071;48.868;9.996;2023-04-08T01:25:04;96717.72;;;7.19;100.00
25080;BME280;13071;48.868;9.996;2023-04-08T01:27:34;96715.50;;;7.21;100.00
25080;BME280;13071;48.868;9.996;2023-04-08T01:30:02;96718.69;;;7.23;100.00
25080;BME280;13071;48.868;9.996;2023-04-08T01:32:31;96710.25;;;7.16;100.00
25080;BME280;13071;48.868;9.996;2023-04-08T01:34:58;96709.75;;;7.14;100.00
25080;BME280;13071;48.868;9.996;2023-04-08T01:37:27;96705.03;;;6.98;100.00
25080;BME280;13071;48.868;9.996;2023-04-08T01:39:55;96703.44;;;6.97;100.00
25080;BME280;13071;48.868;9.996;2023-04-08T01:42:23;96705.22;;;7.01;100.00
25080;BME280;13071;48.868;9.996;2023-04-08T01:44:54;96706.81;;;7.02;100.00
25080;BME280;13071;48.868;9.996;2023-04-08T01:47:21;96702.78;;;7.13;100.00
25080;BME280;13071;48.868;9.996;2023-04-08T01:49:49;96706.88;;;7.11;100.00
25080;BME280;13071;48.868;9.996;2023-04-08T01:52:17;96703.56;;;6.91;100.00
25080;BME280;13071;48.868;9.996;2023-04-08T01:54:45;96704.34;;;6.92;100.00
25080;BME280;13071;48.868;9.996;2023-04-08T01:57:16;96706.00;;;7.02;100.00
25080;BME280;13071;48.868;9.996;2023-04-08T01:59:47;96701.94;;;7.04;100.00
25080;BME280;13071;48.868;9.996;2023-04-08T02:02:19;96703.19;;;7.07;100.00
25080;BME280;13071;48.868;9.996;2023-04-08T02:04:46;96697.66;;;7.03;100.00
25080;BME280;13071;48.868;9.996;2023-04-08T02:07:13;96705.72;;;7.03;100.00
25080;BME280;13071;48.868;9.996;2023-04-08T02:09:40;96704.00;;;7.07;100.00
25080;BME280;13071;48.868;9.996;2023-04-08T02:12:07;96705.09;;;7.06;100.00
25080;BME280;13071;48.868;9.996;2023-04-08T02:14:33;96701.19;;;7.12;100.00
25080;BME280;13071;48.868;9.996;2023-04-08T02:17:04;96706.09;;;7.10;100.00
25080;BME280;13071;48.868;9.996;2023-04-08T02:19:37;96703.69;;;7.09;100.00
25080;BME280;13071;48.868;9.996;2023-04-08T02:22:10;96697.34;;;7.05;100.00
25080;BME280;13071;48.868;9.996;2023-04-08T02:24:38;96693.84;;;7.04;100.00
25080;BME280;13071;48.868;9.996;2023-04-08T02:27:07;96693.63;;;7.14;100.00
25080;BME280;13071;48.868;9.996;2023-04-08T02:29:36;96689.63;;;7.12;100.00
25080;BME280;13071;48.868;9.996;2023-04-08T02:32:08;96705.59;;;7.08;100.00
25080;BME280;13071;48.868;9.996;2023-04-08T02:34:39;96704.84;;;7.16;100.00
25080;BME280;13071;48.868;9.996;2023-04-08T02:37:07;96701.47;;;7.11;100.00
25080;BME280;13071;48.868;9.996;2023-04-08T02:39:34;96710.69;;;7.10;100.00
25080;BME280;13071;48.868;9.996;2023-04-08T02:42:00;96704.69;;;7.13;100.00
25080;BME280;13071;48.868;9.996;2023-04-08T02:44:27;96708.00;;;7.10;100.00
25080;BME280;13071;48.868;9.996;2023-04-08T02:46:53;96700.34;;;7.03;100.00
25080;BME280;13071;48.868;9.996;2023-04-08T02:49:20;96703.56;;;6.91;100.00
25080;BME280;13071;48.868;9.996;2023-04-08T02:51:48;96706.13;;;6.97;100.00
25080;BME280;13071;48.868;9.996;2023-04-08T02:54:15;96705.22;;;7.01;100.00
25080;BME280;13071;48.868;9.996;2023-04-08T02:56:41;96704.63;;;7.04;100.00
25080;BME280;13071;48.868;9.996;2023-04-08T02:59:08;96711.78;;;7.09;100.00
25080;BME280;13071;48.868;9.996;2023-04-08T03:01:34;96709.44;;;6.93;100.00
25080;BME280;13071;48.868;9.996;2023-04-08T03:04:01;96704.84;;;6.94;100.00
25080;BME280;13071;48.868;9.996;2023-04-08T03:06:27;96712.47;;;7.01;100.00
25080;BME280;13071;48.868;9.996;2023-04-08T03:08:55;96703.03;;;7.03;100.00
25080;BME280;13071;48.868;9.996;2023-04-08T03:11:22;96699.41;;;7.08;100.00
25080;BME280;13071;48.868;9.996;2023-04-08T03:13:48;96701.00;;;7.09;100.00
25080;BME280;13071;48.868;9.996;2023-04-08T03:16:15;96702.91;;;7.08;100.00
25080;BME280;13071;48.868;9.996;2023-04-08T03:18:41;96704.19;;;7.11;100.00
25080;BME280;13071;48.868;9.996;2023-04-08T03:21:08;96706.28;;;7.14;100.00
25080;BME280;13071;48.868;9.996;2023-04-08T03:23:35;96707.88;;;7.15;100.00
25080;BME280;13071;48.868;9.996;2023-04-08T03:26:02;96710.56;;;7.15;100.00
25080;BME280;13071;48.868;9.996;2023-04-08T03:28:29;96709.56;;;7.11;100.00
25080;BME280;13071;48.868;9.996;2023-04-08T03:30:56;96714.94;;;7.11;100.00
25080;BME280;13071;48.868;9.996;2023-04-08T03:33:22;96720.31;;;6.88;100.00
25080;BME280;13071;48.868;9.996;2023-04-08T03:35:49;96719.44;;;6.79;100.00
25080;BME280;13071;48.868;9.996;2023-04-08T03:38:15;96725.88;;;6.92;100.00
25080;BME280;13071;48.868;9.996;2023-04-08T03:40:42;96714.88;;;7.02;100.00
25080;BME280;13071;48.868;9.996;2023-04-08T03:43:10;96718.53;;;7.06;100.00
25080;BME280;13071;48.868;9.996;2023-04-08T03:45:37;96716.69;;;6.57;100.00
25080;BME280;13071;48.868;9.996;2023-04-08T03:48:04;96722.69;;;6.54;100.00
25080;BME280;13071;48.868;9.996;2023-04-08T03:50:30;96722.19;;;6.52;100.00
25080;BME280;13071;48.868;9.996;2023-04-08T03:52:57;96718.69;;;6.65;100.00
25080;BME280;13071;48.868;9.996;2023-04-08T03:55:24;96722.19;;;6.52;100.00
25080;BME280;13071;48.868;9.996;2023-04-08T03:57:50;96717.59;;;6.53;100.00
25080;BME280;13071;48.868;9.996;2023-04-08T04:00:18;96716.63;;;6.48;100.00
25080;BME280;13071;48.868;9.996;2023-04-08T04:02:45;96717.31;;;6.54;100.00
25080;BME280;13071;48.868;9.996;2023-04-08T04:05:11;96724.69;;;6.48;100.00
25080;BME280;13071;48.868;9.996;2023-04-08T04:07:38;96714.53;;;6.45;100.00
25080;BME280;13071;48.868;9.996;2023-04-08T04:10:05;96719.91;;;6.45;100.00
25080;BME280;13071;48.868;9.996;2023-04-08T04:12:32;96724.28;;;6.41;100.00
25080;BME280;13071;48.868;9.996;2023-04-08T04:14:58;96728.88;;;6.41;100.00
25080;BME280;13071;48.868;9.996;2023-04-08T04:17:26;96725.69;;;6.39;100.00
25080;BME280;13071;48.868;9.996;2023-04-08T04:19:53;96730.97;;;6.44;100.00
25080;BME280;13071;48.868;9.996;2023-04-08T04:22:19;96730.66;;;6.45;100.00
25080;BME280;13071;48.868;9.996;2023-04-08T04:24:47;96723.88;;;6.48;100.00
25080;BME280;13071;48.868;9.996;2023-04-08T04:27:14;96734.06;;;6.51;100.00
25080;BME280;13071;48.868;9.996;2023-04-08T04:29:41;96728.66;;;6.37;100.00
25080;BME280;13071;48.868;9.996;2023-04-08T04:32:08;96737.63;;;6.33;100.00
25080;BME280;13071;48.868;9.996;2023-04-08T04:34:36;96740.53;;;6.36;100.00
25080;BME280;13071;48.868;9.996;2023-04-08T04:37:03;96733.56;;;6.35;100.00
25080;BME280;13071;48.868;9.996;2023-04-08T04:39:29;96738.63;;;6.50;100.00
25080;BME280;13071;48.868;9.996;2023-04-08T04:41:56;96742.00;;;6.56;100.00
25080;BME280;13071;48.868;9.996;2023-04-08T04:44:23;96738.31;;;6.52;100.00
25080;BME280;13071;48.868;9.996;2023-04-08T04:46:49;96744.09;;;6.59;100.00
25080;BME280;13071;48.868;9.996;2023-04-08T04:49:16;96739.00;;;6.58;100.00
25080;BME280;13071;48.868;9.996;2023-04-08T04:51:44;96742.09;;;6.65;100.00
25080;BME280;13071;48.868;9.996;2023-04-08T04:54:11;96741.47;;;6.68;100.00
25080;BME280;13071;48.868;9.996;2023-04-08T04:56:38;96748.41;;;6.82;100.00
25080;BME280;13071;48.868;9.996;2023-04-08T04:59:04;96751.41;;;6.81;100.00
25080;BME280;13071;48.868;9.996;2023-04-08T05:01:32;96747.28;;;6.47;100.00
25080;BME280;13071;48.868;9.996;2023-04-08T05:03:59;96750.41;;;6.41;100.00
25080;BME280;13071;48.868;9.996;2023-04-08T05:06:26;96753.38;;;6.39;100.00
25080;BME280;13071;48.868;9.996;2023-04-08T05:08:54;96759.22;;;6.41;100.00
25080;BME280;13071;48.868;9.996;2023-04-08T05:11:20;96757.34;;;6.42;100.00
25080;BME280;13071;48.868;9.996;2023-04-08T05:13:47;96759.44;;;6.45;100.00
25080;BME280;13071;48.868;9.996;2023-04-08T05:16:14;96765.81;;;6.35;100.00
25080;BME280;13071;48.868;9.996;2023-04-08T05:18:41;96759.03;;;6.24;100.00
25080;BME280;13071;48.868;9.996;2023-04-08T05:21:07;96765.69;;;6.27;100.00
25080;BME280;13071;48.868;9.996;2023-04-08T05:23:34;96768.50;;;6.35;100.00
25080;BME280;13071;48.868;9.996;2023-04-08T05:26:04;96772.09;;;6.31;100.00
25080;BME280;13071;48.868;9.996;2023-04-08T05:28:31;96773.19;;;6.43;100.00
25080;BME280;13071;48.868;9.996;2023-04-08T05:30:58;96771.28;;;6.44;100.00
25080;BME280;13071;48.868;9.996;2023-04-08T05:33:25;96781.44;;;6.33;100.00
25080;BME280;13071;48.868;9.996;2023-04-08T05:35:51;96781.06;;;6.40;100.00
25080;BME280;13071;48.868;9.996;2023-04-08T05:38:18;96780.34;;;6.34;100.00
25080;BME280;13071;48.868;9.996;2023-04-08T05:40:45;96783.84;;;6.21;100.00
25080;BME280;13071;48.868;9.996;2023-04-08T05:43:12;96786.00;;;6.19;100.00
25080;BME280;13071;48.868;9.996;2023-04-08T05:45:39;96788.00;;;6.27;100.00
25080;BME280;13071;48.868;9.996;2023-04-08T05:48:06;96788.59;;;6.24;100.00
25080;BME280;13071;48.868;9.996;2023-04-08T05:50:34;96791.91;;;6.35;100.00
25080;BME280;13071;48.868;9.996;2023-04-08T05:53:00;96793.28;;;6.32;100.00
25080;BME280;13071;48.868;9.996;2023-04-08T05:55:27;96798.38;;;6.34;100.00
25080;BME280;13071;48.868;9.996;2023-04-08T05:57:53;96797.75;;;6.23;100.00
25080;BME280;13071;48.868;9.996;2023-04-08T06:00:21;96794.88;;;6.33;100.00
25080;BME280;13071;48.868;9.996;2023-04-08T06:02:48;96802.66;;;6.35;100.00
25080;BME280;13071;48.868;9.996;2023-04-08T06:05:15;96807.13;;;6.39;100.00
25080;BME280;13071;48.868;9.996;2023-04-08T06:07:41;96805.81;;;6.37;100.00
25080;BME280;13071;48.868;9.996;2023-04-08T06:10:08;96809.63;;;6.49;100.00
25080;BME280;13071;48.868;9.996;2023-04-08T06:12:35;96817.59;;;6.41;100.00
25080;BME280;13071;48.868;9.996;2023-04-08T06:15:03;96814.50;;;6.34;100.00
25080;BME280;13071;48.868;9.996;2023-04-08T06:17:31;96813.31;;;6.40;100.00
25080;BME280;13071;48.868;9.996;2023-04-08T06:19:59;96817.97;;;6.48;100.00
25080;BME280;13071;48.868;9.996;2023-04-08T06:22:26;96822.47;;;6.53;100.00
25080;BME280;13071;48.868;9.996;2023-04-08T06:24:54;96818.19;;;6.79;100.00
25080;BME280;13071;48.868;9.996;2023-04-08T06:27:20;96821.19;;;6.64;100.00
25080;BME280;13071;48.868;9.996;2023-04-08T06:29:47;96818.97;;;6.79;100.00
25080;BME280;13071;48.868;9.996;2023-04-08T06:32:14;96816.88;;;6.76;100.00
25080;BME280;13071;48.868;9.996;2023-04-08T06:34:43;96820.88;;;6.79;100.00
25080;BME280;13071;48.868;9.996;2023-04-08T06:37:10;96816.78;;;6.95;100.00
25080;BME280;13071;48.868;9.996;2023-04-08T06:39:36;96818.47;;;6.64;100.00
25080;BME280;13071;48.868;9.996;2023-04-08T06:42:03;96822.84;;;6.73;100.00
25080;BME280;13071;48.868;9.996;2023-04-08T06:44:30;96827.63;;;6.63;100.00
25080;BME280;13071;48.868;9.996;2023-04-08T06:46:57;96823.22;;;7.08;100.00
25080;BME280;13071;48.868;9.996;2023-04-08T06:49:23;96829.00;;;7.15;100.00
25080;BME280;13071;48.868;9.996;2023-04-08T06:51:52;96829.59;;;6.98;100.00
25080;BME280;13071;48.868;9.996;2023-04-08T06:54:19;96835.50;;;7.36;99.11
25080;BME280;13071;48.868;9.996;2023-04-08T06:56:45;96838.06;;;7.55;97.48
25080;BME280;13071;48.868;9.996;2023-04-08T06:59:12;96834.19;;;7.69;98.19
25080;BME280;13071;48.868;9.996;2023-04-08T07:01:39;96844.91;;;7.25;95.76
25080;BME280;13071;48.868;9.996;2023-04-08T07:04:05;96846.75;;;7.02;97.48
25080;BME280;13071;48.868;9.996;2023-04-08T07:06:32;96846.56;;;6.71;96.98
25080;BME280;13071;48.868;9.996;2023-04-08T07:09:00;96842.06;;;6.94;95.99
25080;BME280;13071;48.868;9.996;2023-04-08T07:11:26;96834.13;;;6.89;97.12
25080;BME280;13071;48.868;9.996;2023-04-08T07:13:53;96843.47;;;6.91;96.74
25080;BME280;13071;48.868;9.996;2023-04-08T07:16:20;96844.69;;;6.85;95.15
25080;BME280;13071;48.868;9.996;2023-04-08T07:18:46;96840.59;;;6.88;94.84
25080;BME280;13071;48.868;9.996;2023-04-08T07:21:13;96844.13;;;7.11;95.12
25080;BME280;13071;48.868;9.996;2023-04-08T07:23:40;96836.84;;;7.25;92.44
25080;BME280;13071;48.868;9.996;2023-04-08T07:26:07;96839.31;;;7.21;93.63
25080;BME280;13071;48.868;9.996;2023-04-08T07:28:34;96851.22;;;7.07;92.50
25080;BME280;13071;48.868;9.996;2023-04-08T07:31:08;96854.88;;;7.24;92.83
25080;BME280;13071;48.868;9.996;2023-04-08T07:33:35;96851.91;;;7.12;92.67
25080;BME280;13071;48.868;9.996;2023-04-08T07:36:02;96848.09;;;7.27;91.83
25080;BME280;13071;48.868;9.996;2023-04-08T07:38:29;96850.84;;;7.35;91.61
25080;BME280;13071;48.868;9.996;2023-04-08T07:40:55;96856.22;;;7.71;86.96
25080;BME280;13071;48.868;9.996;2023-04-08T07:43:23;96865.28;;;7.53;83.09
25080;BME280;13071;48.868;9.996;2023-04-08T07:45:50;96857.72;;;7.42;85.01
25080;BME280;13071;48.868;9.996;2023-04-08T07:48:16;96858.28;;;7.30;86.05
25080;BME280;13071;48.868;9.996;2023-04-08T07:50:43;96859.25;;;7.20;84.38
25080;BME280;13071;48.868;9.996;2023-04-08T07:53:10;96859.44;;;7.60;83.88
25080;BME280;13071;48.868;9.996;2023-04-08T07:55:36;96862.09;;;7.15;84.41
25080;BME280;13071;48.868;9.996;2023-04-08T07:58:04;96866.06;;;7.18;85.60
25080;BME280;13071;48.868;9.996;2023-04-08T08:00:32;96871.81;;;7.38;84.88
25080;BME280;13071;48.868;9.996;2023-04-08T08:02:59;96873.69;;;7.38;85.04
25080;BME280;13071;48.868;9.996;2023-04-08T08:05:25;96873.84;;;7.19;86.91
25080;BME280;13071;48.868;9.996;2023-04-08T08:07:52;96875.75;;;7.55;87.29
25080;BME280;13071;48.868;9.996;2023-04-08T08:10:18;96880.84;;;7.78;86.06
25080;BME280;13071;48.868;9.996;2023-04-08T08:12:45;96884.50;;;7.60;85.11
25080;BME280;13071;48.868;9.996;2023-04-08T08:15:11;96884.53;;;7.47;80.66
25080;BME280;13071;48.868;9.996;2023-04-08T08:17:40;96888.97;;;7.65;81.50
25080;BME280;13071;48.868;9.996;2023-04-08T08:20:07;96892.78;;;7.64;80.63
25080;BME280;13071;48.868;9.996;2023-04-08T08:22:34;96894.91;;;7.75;81.33
25080;BME280;13071;48.868;9.996;2023-04-08T08:25:03;96894.56;;;7.91;79.20
25080;BME280;13071;48.868;9.996;2023-04-08T08:27:30;96892.19;;;8.11;79.24
25080;BME280;13071;48.868;9.996;2023-04-08T08:29:58;96891.44;;;7.75;79.72
25080;BME280;13071;48.868;9.996;2023-04-08T08:32:25;96898.06;;;7.91;79.55
25080;BME280;13071;48.868;9.996;2023-04-08T08:34:53;96891.44;;;7.75;79.64
25080;BME280;13071;48.868;9.996;2023-04-08T08:37:20;96899.84;;;7.73;80.79
25080;BME280;13071;48.868;9.996;2023-04-08T08:39:46;96898.13;;;7.77;76.99
25080;BME280;13071;48.868;9.996;2023-04-08T08:42:20;96897.06;;;8.09;77.02
25080;BME280;13071;48.868;9.996;2023-04-08T08:44:47;96895.84;;;8.15;77.27
25080;BME280;13071;48.868;9.996;2023-04-08T08:47:13;96904.00;;;8.02;74.42
25080;BME280;13071;48.868;9.996;2023-04-08T08:49:40;96907.34;;;7.85;73.44
25080;BME280;13071;48.868;9.996;2023-04-08T08:52:09;96908.91;;;8.00;76.28
25080;BME280;13071;48.868;9.996;2023-04-08T08:54:35;96913.66;;;7.80;74.27
25080;BME280;13071;48.868;9.996;2023-04-08T08:57:02;96905.91;;;7.79;74.99
25080;BME280;13071;48.868;9.996;2023-04-08T08:59:29;96905.25;;;8.18;73.27
25080;BME280;13071;48.868;9.996;2023-04-08T09:01:55;96906.66;;;7.93;74.79
25080;BME280;13071;48.868;9.996;2023-04-08T09:04:22;96914.28;;;7.77;74.57
25080;BME280;13071;48.868;9.996;2023-04-08T09:06:50;96916.56;;;7.84;74.93
25080;BME280;13071;48.868;9.996;2023-04-08T09:09:47;96918.84;;;8.13;75.88
25080;BME280;13071;48.868;9.996;2023-04-08T09:12:14;96914.25;;;8.36;73.05
25080;BME280;13071;48.868;9.996;2023-04-08T09:14:41;96924.41;;;8.39;74.29
25080;BME280;13071;48.868;9.996;2023-04-08T09:17:08;96920.75;;;8.12;75.19
25080;BME280;13071;48.868;9.996;2023-04-08T09:19:34;96917.66;;;8.28;76.61
25080;BME280;13071;48.868;9.996;2023-04-08T09:22:05;96917.91;;;7.73;77.43
25080;BME280;13071;48.868;9.996;2023-04-08T09:24:33;96924.94;;;7.47;78.35
25080;BME280;13071;48.868;9.996;2023-04-08T09:27:03;96911.69;;;7.36;77.85
25080;BME280;13071;48.868;9.996;2023-04-08T09:29:29;96914.56;;;7.54;78.38
25080;BME280;13071;48.868;9.996;2023-04-08T09:31:57;96912.97;;;7.53;77.53
25080;BME280;13071;48.868;9.996;2023-04-08T09:34:25;96901.50;;;7.47;80.05
25080;BME280;13071;48.868;9.996;2023-04-08T09:36:52;96917.94;;;7.46;79.93
25080;BME280;13071;48.868;9.996;2023-04-08T09:39:20;96916.44;;;7.53;79.30
25080;BME280;13071;48.868;9.996;2023-04-08T09:41:48;96922.31;;;7.55;79.73
25080;BME280;13071;48.868;9.996;2023-04-08T09:44:18;96920.53;;;7.51;80.76
25080;BME280;13071;48.868;9.996;2023-04-08T09:46:54;96917.72;;;7.56;79.77
25080;BME280;13071;48.868;9.996;2023-04-08T09:49:25;96923.03;;;7.47;76.91
25080;BME280;13071;48.868;9.996;2023-04-08T09:51:55;96929.53;;;7.46;78.06
25080;BME280;13071;48.868;9.996;2023-04-08T09:54:34;96943.69;;;7.52;75.98
25080;BME280;13071;48.868;9.996;2023-04-08T09:57:09;96925.69;;;7.61;76.67
25080;BME280;13071;48.868;9.996;2023-04-08T09:59:37;96931.88;;;7.97;76.92
25080;BME280;13071;48.868;9.996;2023-04-08T10:02:09;96925.63;;;7.88;76.30
25080;BME280;13071;48.868;9.996;2023-04-08T10:04:39;96941.19;;;7.91;73.88
25080;BME280;13071;48.868;9.996;2023-04-08T10:07:08;96935.38;;;7.62;69.22
25080;BME280;13071;48.868;9.996;2023-04-08T10:09:34;96931.94;;;7.70;71.39
25080;BME280;13071;48.868;9.996;2023-04-08T10:12:03;96929.19;;;7.61;70.03
25080;BME280;13071;48.868;9.996;2023-04-08T10:14:30;96933.41;;;7.54;71.32
25080;BME280;13071;48.868;9.996;2023-04-08T10:17:26;96931.84;;;7.75;70.07
25080;BME280;13071;48.868;9.996;2023-04-08T10:19:53;96932.91;;;7.52;69.90
25080;BME280;13071;48.868;9.996;2023-04-08T10:22:44;96934.75;;;7.65;69.97
25080;BME280;13071;48.868;9.996;2023-04-08T10:25:28;96933.16;;;7.77;70.19
25080;BME280;13071;48.868;9.996;2023-04-08T10:27:56;96938.81;;;7.76;70.56
25080;BME280;13071;48.868;9.996;2023-04-08T10:30:39;96933.38;;;7.67;69.38
25080;BME280;13071;48.868;9.996;2023-04-08T10:33:10;96931.19;;;7.56;71.78
25080;BME280;13071;48.868;9.996;2023-04-08T10:35:41;96930.97;;;7.66;69.94
25080;BME280;13071;48.868;9.996;2023-04-08T10:38:11;96932.44;;;7.50;70.49
25080;BME280;13071;48.868;9.996;2023-04-08T10:40:39;96933.47;;;7.62;71.57
25080;BME280;13071;48.868;9.996;2023-04-08T10:43:07;96931.00;;;7.52;71.16
25080;BME280;13071;48.868;9.996;2023-04-08T10:45:34;96936.31;;;7.79;73.41
25080;BME280;13071;48.868;9.996;2023-04-08T10:48:16;96932.50;;;7.58;72.46
25080;BME280;13071;48.868;9.996;2023-04-08T10:50:44;96936.25;;;7.71;70.91
25080;BME280;13071;48.868;9.996;2023-04-08T10:53:17;96928.91;;;7.85;71.83
25080;BME280;13071;48.868;9.996;2023-04-08T10:55:44;96932.34;;;7.99;73.28
25080;BME280;13071;48.868;9.996;2023-04-08T10:58:10;96932.28;;;7.68;74.09
25080;BME280;13071;48.868;9.996;2023-04-08T11:00:38;96934.53;;;7.75;73.04
25080;BME280;13071;48.868;9.996;2023-04-08T11:03:06;96929.38;;;7.65;73.08
25080;BME280;13071;48.868;9.996;2023-04-08T11:05:35;96931.84;;;7.39;73.37
25080;BME280;13071;48.868;9.996;2023-04-08T11:08:03;96931.13;;;7.47;73.64
25080;BME280;13071;48.868;9.996;2023-04-08T11:10:30;96921.69;;;7.72;74.87
25080;BME280;13071;48.868;9.996;2023-04-08T11:12:59;96921.28;;;8.01;72.07
25080;BME280;13071;48.868;9.996;2023-04-08T11:15:29;96921.97;;;7.84;73.30
25080;BME280;13071;48.868;9.996;2023-04-08T11:17:57;96922.41;;;7.64;70.64
25080;BME280;13071;48.868;9.996;2023-04-08T11:20:23;96927.41;;;7.57;70.55
25080;BME280;13071;48.868;9.996;2023-04-08T11:22:51;96933.38;;;7.67;71.09
25080;BME280;13071;48.868;9.996;2023-04-08T11:25:18;96927.53;;;7.38;70.63
25080;BME280;13071;48.868;9.996;2023-04-08T11:27:45;96933.41;;;7.40;70.99
25080;BME280;13071;48.868;9.996;2023-04-08T11:30:12;96935.56;;;7.65;72.86
25080;BME280;13071;48.868;9.996;2023-04-08T11:32:39;96938.19;;;7.57;72.75
25080;BME280;13071;48.868;9.996;2023-04-08T11:35:06;96941.50;;;7.40;72.26
25080;BME280;13071;48.868;9.996;2023-04-08T11:37:37;96949.88;;;7.88;74.00
25080;BME280;13071;48.868;9.996;2023-04-08T11:40:09;96947.53;;;8.09;73.06
25080;BME280;13071;48.868;9.996;2023-04-08T11:42:37;96949.03;;;7.65;73.82
25080;BME280;13071;48.868;9.996;2023-04-08T11:45:09;96947.97;;;7.53;72.65
25080;BME280;13071;48.868;9.996;2023-04-08T11:47:37;96952.78;;;7.28;75.04
25080;BME280;13071;48.868;9.996;2023-04-08T11:50:05;96950.47;;;7.35;73.87
25080;BME280;13071;48.868;9.996;2023-04-08T11:52:42;96948.69;;;7.31;75.37
25080;BME280;13071;48.868;9.996;2023-04-08T11:55:11;96946.91;;;7.26;74.54
25080;BME280;13071;48.868;9.996;2023-04-08T11:57:38;96953.47;;;7.07;75.37
25080;BME280;13071;48.868;9.996;2023-04-08T12:00:06;96947.69;;;7.27;75.58
25080;BME280;13071;48.868;9.996;2023-04-08T12:02:34;96943.63;;;7.29;76.04
25080;BME280;13071;48.868;9.996;2023-04-08T12:05:00;96949.41;;;7.23;75.69
25080;BME280;13071;48.868;9.996;2023-04-08T12:07:28;96942.13;;;7.10;75.71
25080;BME280;13071;48.868;9.996;2023-04-08T12:09:54;96948.50;;;7.14;78.05
25080;BME280;13071;48.868;9.996;2023-04-08T12:12:22;96952.38;;;7.21;77.04
25080;BME280;13071;48.868;9.996;2023-04-08T12:14:49;96948.28;;;6.97;77.33
25080;BME280;13071;48.868;9.996;2023-04-08T12:17:15;96953.47;;;7.07;77.50
25080;BME280;13071;48.868;9.996;2023-04-08T12:19:42;96954.28;;;7.07;77.17
25080;BME280;13071;48.868;9.996;2023-04-08T12:22:08;96957.97;;;7.38;78.73
25080;BME280;13071;48.868;9.996;2023-04-08T12:24:35;96959.63;;;7.62;76.96
25080;BME280;13071;48.868;9.996;2023-04-08T12:27:01;96950.19;;;7.37;75.73
25080;BME280;13071;48.868;9.996;2023-04-08T12:29:30;96956.94;;;7.62;77.83
25080;BME280;13071;48.868;9.996;2023-04-08T12:31:57;96953.78;;;7.82;78.05
25080;BME280;13071;48.868;9.996;2023-04-08T12:34:24;96957.81;;;7.71;75.54
25080;BME280;13071;48.868;9.996;2023-04-08T12:36:50;96947.03;;;7.71;75.17
25080;BME280;13071;48.868;9.996;2023-04-08T12:39:17;96957.03;;;7.57;75.66
25080;BME280;13071;48.868;9.996;2023-04-08T12:41:43;96955.75;;;7.54;76.84
25080;BME280;13071;48.868;9.996;2023-04-08T12:44:10;96963.00;;;7.67;78.38
25080;BME280;13071;48.868;9.996;2023-04-08T12:46:38;96958.78;;;7.39;77.12
25080;BME280;13071;48.868;9.996;2023-04-08T12:49:04;96959.56;;;7.40;77.50
25080;BME280;13071;48.868;9.996;2023-04-08T12:51:31;96964.84;;;7.31;78.05
25080;BME280;13071;48.868;9.996;2023-04-08T12:53:58;96957.31;;;7.55;77.97
25080;BME280;13071;48.868;9.996;2023-04-08T12:56:26;96952.59;;;7.25;77.96
25080;BME280;13071;48.868;9.996;2023-04-08T12:58:52;96951.47;;;7.53;77.29
25080;BME280;13071;48.868;9.996;2023-04-08T13:01:20;96956.16;;;7.20;76.36
25080;BME280;13071;48.868;9.996;2023-04-08T13:03:47;96958.97;;;7.29;77.91
25080;BME280;13071;48.868;9.996;2023-04-08T13:06:14;96945.31;;;7.75;76.92
25080;BME280;13071;48.868;9.996;2023-04-08T13:08:41;96949.84;;;7.66;77.10